createdAt,value
2022-08-14T00:01:10.052Z,5.10
2022-08-14T00:03:37.030Z,5.20
2022-08-14T00:06:25.475Z,4.97
2022-08-14T00:08:50.353Z,5.40
2022-08-14T00:11:17.433Z,4.63
2022-08-14T00:13:44.057Z,4.43
2022-08-14T00:16:41.070Z,4.88
2022-08-14T00:19:21.191Z,4.57
2022-08-14T00:21:51.749Z,4.60
2022-08-14T00:24:28.129Z,4.97
2022-08-14T00:26:56.458Z,4.68
2022-08-14T00:29:25.471Z,4.43
2022-08-14T00:31:56.068Z,4.25
2022-08-14T00:34:37.789Z,4.45
2022-08-14T00:37:10.326Z,5.13
2022-08-14T00:39:37.305Z,4.22
2022-08-14T00:42:04.419Z,4.40
2022-08-14T00:44:32.269Z,4.40
2022-08-14T00:46:59.831Z,3.83
2022-08-14T00:49:28.708Z,4.93
2022-08-14T00:51:56.826Z,4.32
2022-08-14T00:54:24.633Z,4.90
2022-08-14T00:56:54.912Z,4.85
2022-08-14T00:59:23.321Z,4.55
2022-08-14T01:01:51.534Z,4.78
2022-08-14T01:04:37.732Z,4.10
2022-08-14T01:07:08.121Z,4.20
2022-08-14T01:09:35.888Z,4.40
2022-08-14T01:12:03.490Z,4.72
2022-08-14T01:14:30.251Z,4.28
2022-08-14T01:16:57.404Z,4.15
2022-08-14T01:19:43.323Z,4.10
2022-08-14T01:22:12.744Z,4.10
2022-08-14T01:24:41.326Z,3.95
2022-08-14T01:27:13.901Z,4.10
2022-08-14T01:29:59.053Z,4.03
2022-08-14T01:32:27.910Z,3.80
2022-08-14T01:35:18.768Z,4.40
2022-08-14T01:37:46.790Z,4.30
2022-08-14T01:40:25.681Z,4.20
2022-08-14T01:43:00.147Z,4.00
2022-08-14T01:45:29.342Z,4.78
2022-08-14T01:48:06.725Z,4.20
2022-08-14T01:50:41.831Z,4.38
2022-08-14T01:53:08.477Z,4.90
2022-08-14T01:55:36.033Z,4.47
2022-08-14T01:58:19.355Z,4.90
2022-08-14T02:00:55.503Z,4.63
2022-08-14T02:03:34.514Z,4.78
2022-08-14T02:06:04.144Z,4.72
2022-08-14T02:08:53.115Z,4.78
2022-08-14T02:11:24.480Z,4.37
2022-08-14T02:13:53.495Z,4.47
2022-08-14T02:16:22.376Z,4.28
2022-08-14T02:18:49.603Z,4.95
2022-08-14T02:21:19.509Z,4.75
2022-08-14T02:23:53.564Z,4.03
2022-08-14T02:26:29.539Z,4.00
2022-08-14T02:29:03.550Z,3.63
2022-08-14T02:31:42.471Z,4.07
2022-08-14T02:34:20.331Z,4.32
2022-08-14T02:37:03.923Z,4.38
2022-08-14T02:39:33.287Z,3.97
2022-08-14T02:41:59.853Z,3.25
2022-08-14T02:44:31.434Z,3.72
2022-08-14T02:47:15.035Z,4.13
2022-08-14T02:49:45.808Z,3.75
2022-08-14T02:52:26.715Z,5.00
2022-08-14T02:55:05.600Z,4.35
2022-08-14T02:57:40.328Z,4.45
2022-08-14T03:00:09.791Z,5.28
2022-08-14T03:02:56.224Z,5.22
2022-08-14T03:05:23.674Z,4.15
2022-08-14T03:07:52.804Z,4.55
2022-08-14T03:10:26.466Z,4.78
2022-08-14T03:12:54.737Z,4.93
2022-08-14T03:15:21.206Z,4.82
2022-08-14T03:17:57.275Z,4.95
2022-08-14T03:20:25.066Z,5.03
2022-08-14T03:22:52.697Z,4.47
2022-08-14T03:25:21.819Z,5.15
2022-08-14T03:27:59.175Z,4.53
2022-08-14T03:30:39.014Z,4.47
2022-08-14T03:33:09.070Z,4.18
2022-08-14T03:35:40.385Z,5.50
2022-08-14T03:39:15.028Z,4.28
2022-08-14T03:41:14.558Z,5.75
2022-08-14T03:43:41.884Z,5.63
2022-08-14T03:46:52.662Z,4.55
2022-08-14T03:48:57.178Z,4.43
2022-08-14T03:51:27.505Z,5.60
2022-08-14T03:53:58.167Z,4.50
2022-08-14T03:56:25.881Z,4.65
2022-08-14T03:58:53.307Z,4.57
2022-08-14T04:01:21.353Z,4.40
2022-08-14T04:03:48.681Z,4.93
2022-08-14T04:06:21.907Z,4.60
2022-08-14T04:08:54.827Z,4.38
2022-08-14T04:11:24.929Z,4.63
2022-08-14T04:13:51.461Z,5.05
2022-08-14T04:16:20.599Z,4.75
2022-08-14T04:18:48.516Z,5.00
2022-08-14T04:21:16.168Z,5.32
2022-08-14T04:23:43.527Z,5.47
2022-08-14T04:26:14.655Z,4.43
2022-08-14T04:29:01.606Z,4.85
2022-08-14T04:32:57.771Z,4.65
2022-08-14T04:34:28.075Z,4.63
2022-08-14T04:37:17.528Z,4.68
2022-08-14T04:40:08.555Z,5.28
2022-08-14T04:42:54.154Z,4.38
2022-08-14T04:45:21.519Z,5.18
2022-08-14T04:48:06.512Z,4.82
2022-08-14T04:50:44.891Z,4.75
2022-08-14T04:53:19.017Z,4.88
2022-08-14T04:55:51.671Z,4.93
2022-08-14T04:58:21.869Z,4.03
2022-08-14T05:00:59.103Z,4.57
2022-08-14T05:03:26.751Z,4.13
2022-08-14T05:05:55.904Z,4.32
2022-08-14T05:08:31.703Z,4.35
2022-08-14T05:11:12.038Z,4.13
2022-08-14T05:14:06.557Z,4.43
2022-08-14T05:16:29.351Z,4.32
2022-08-14T05:19:18.267Z,4.07
2022-08-14T05:22:00.222Z,4.03
2022-08-14T05:24:30.141Z,3.70
2022-08-14T05:26:56.666Z,4.05
2022-08-14T05:29:23.149Z,3.83
2022-08-14T05:31:50.521Z,3.63
2022-08-14T05:34:31.710Z,3.83
2022-08-14T05:37:02.326Z,3.30
2022-08-14T05:39:30.054Z,3.75
2022-08-14T05:41:57.969Z,4.43
2022-08-14T05:44:29.184Z,3.92
2022-08-14T05:46:56.757Z,4.10
2022-08-14T05:49:23.234Z,3.65
2022-08-14T05:52:01.619Z,3.75
2022-08-14T05:54:28.698Z,3.78
2022-08-14T05:59:36.470Z,3.35
2022-08-14T06:02:06.125Z,4.20
2022-08-14T06:04:32.628Z,3.15
2022-08-14T06:07:03.239Z,3.72
2022-08-14T06:09:30.777Z,3.30
2022-08-14T06:12:02.668Z,3.83
2022-08-14T06:14:31.208Z,3.55
2022-08-14T06:16:58.337Z,4.10
2022-08-14T06:19:26.307Z,2.90
2022-08-14T06:21:58.325Z,3.35
2022-08-14T06:24:26.254Z,3.97
2022-08-14T06:26:56.666Z,3.53
2022-08-14T06:29:32.407Z,3.00
2022-08-14T06:32:52.506Z,3.20
2022-08-14T06:35:10.582Z,3.15
2022-08-14T06:37:41.414Z,3.88
2022-08-14T06:40:08.586Z,2.85
2022-08-14T06:42:52.588Z,3.15
2022-08-14T06:45:21.464Z,3.83
2022-08-14T06:47:53.717Z,3.17
2022-08-14T06:50:21.750Z,3.10
2022-08-14T06:52:54.902Z,3.10
2022-08-14T06:55:25.784Z,3.10
2022-08-14T07:00:27.201Z,3.42
2022-08-14T07:03:15.727Z,3.72
2022-08-14T07:05:55.601Z,3.35
2022-08-14T07:08:28.846Z,3.08
2022-08-14T07:10:59.581Z,3.53
2022-08-14T07:13:26.485Z,3.35
2022-08-14T07:15:55.072Z,3.28
2022-08-14T07:18:23.010Z,2.95
2022-08-14T07:20:49.737Z,2.95
2022-08-14T07:23:20.932Z,3.22
2022-08-14T07:25:48.701Z,3.60
2022-08-14T07:28:21.302Z,3.30
2022-08-14T07:30:50.909Z,3.53
2022-08-14T07:33:20.743Z,3.08
2022-08-14T07:35:58.548Z,3.20
2022-08-14T07:38:33.914Z,3.35
2022-08-14T07:41:11.631Z,3.38
2022-08-14T07:43:41.834Z,3.50
2022-08-14T07:46:08.448Z,2.80
2022-08-14T07:48:38.950Z,3.08
2022-08-14T07:51:10.921Z,3.03
2022-08-14T07:53:39.270Z,3.53
2022-08-14T07:56:21.409Z,3.30
2022-08-14T07:58:54.042Z,2.83
2022-08-14T08:01:26.222Z,3.72
2022-08-14T08:03:59.629Z,3.00
2022-08-14T08:06:26.815Z,3.30
2022-08-14T08:09:01.280Z,3.38
2022-08-14T08:11:34.864Z,3.08
2022-08-14T08:14:16.306Z,2.63
2022-08-14T08:16:45.068Z,2.78
2022-08-14T08:19:14.136Z,3.20
2022-08-14T08:21:43.889Z,2.90
2022-08-14T08:24:12.550Z,3.08
2022-08-14T08:26:45.402Z,3.10
2022-08-14T08:29:18.518Z,2.90
2022-08-14T08:31:51.960Z,3.20
2022-08-14T08:34:19.388Z,2.75
2022-08-14T08:36:47.021Z,2.70
2022-08-14T08:39:14.915Z,2.65
2022-08-14T08:41:53.207Z,2.60
2022-08-14T08:44:31.738Z,3.00
2022-08-14T08:47:01.623Z,2.97
2022-08-14T08:49:43.107Z,3.17
2022-08-14T08:52:25.012Z,3.75
2022-08-14T08:54:57.357Z,3.55
2022-08-14T08:57:25.341Z,3.42
2022-08-14T08:59:54.754Z,2.63
2022-08-14T09:02:22.687Z,2.85
2022-08-14T09:05:00.898Z,2.95
2022-08-14T09:07:30.531Z,2.67
2022-08-14T09:09:59.357Z,2.33
2022-08-14T09:12:32.362Z,2.80
2022-08-14T09:15:11.278Z,3.28
2022-08-14T09:17:41.384Z,3.05
2022-08-14T09:20:11.725Z,2.85
2022-08-14T09:22:47.575Z,2.45
2022-08-14T09:25:16.013Z,2.50
2022-08-14T09:27:42.611Z,2.70
2022-08-14T09:30:31.710Z,2.90
2022-08-14T09:33:10.653Z,3.20
2022-08-14T09:35:41.729Z,2.78
2022-08-14T09:38:27.474Z,2.95
2022-08-14T09:40:54.115Z,2.35
2022-08-14T09:43:39.869Z,2.80
2022-08-14T09:46:07.707Z,2.53
2022-08-14T09:48:35.421Z,2.65
2022-08-14T09:54:18.471Z,2.60
2022-08-14T09:56:30.470Z,2.25
2022-08-14T09:58:59.405Z,2.60
2022-08-14T10:01:35.779Z,2.60
2022-08-14T10:04:06.366Z,2.30
2022-08-14T10:06:45.507Z,2.97
2022-08-14T10:09:16.853Z,2.60
2022-08-14T10:11:58.676Z,2.65
2022-08-14T10:14:34.659Z,2.70
2022-08-14T10:17:02.604Z,2.85
2022-08-14T10:19:31.632Z,2.58
2022-08-14T10:23:13.030Z,2.70
2022-08-14T10:27:24.059Z,2.70
2022-08-14T10:29:54.910Z,2.50
2022-08-14T10:32:28.322Z,3.28
2022-08-14T10:35:14.019Z,3.22
2022-08-14T10:37:50.183Z,2.85
2022-08-14T10:40:37.677Z,3.20
2022-08-14T10:43:25.517Z,3.28
2022-08-14T10:46:21.669Z,2.95
2022-08-14T10:49:04.651Z,2.90
2022-08-14T10:51:36.206Z,2.47
2022-08-14T10:54:16.287Z,3.08
2022-08-14T10:56:44.040Z,2.65
2022-08-14T10:59:10.994Z,3.13
2022-08-14T11:01:41.775Z,3.05
2022-08-14T11:04:20.188Z,3.45
2022-08-14T11:06:53.055Z,3.30
2022-08-14T11:09:19.697Z,3.05
2022-08-14T11:11:49.400Z,3.40
2022-08-14T11:14:22.981Z,3.15
2022-08-14T11:16:53.918Z,3.40
2022-08-14T11:19:24.350Z,3.03
2022-08-14T11:21:56.140Z,3.75
2022-08-14T11:24:53.996Z,3.35
2022-08-14T11:27:14.775Z,3.60
2022-08-14T11:29:48.240Z,2.78
2022-08-14T11:32:22.287Z,3.17
2022-08-14T11:34:49.118Z,2.90
2022-08-14T11:37:18.983Z,2.78
2022-08-14T11:39:53.526Z,2.83
2022-08-14T11:42:56.424Z,3.17
2022-08-14T11:45:17.098Z,2.90
2022-08-14T11:48:13.357Z,2.90
2022-08-14T11:50:37.758Z,2.92
2022-08-14T11:53:05.229Z,2.92
2022-08-14T11:55:38.808Z,2.75
2022-08-14T11:58:08.809Z,3.17
2022-08-14T12:00:46.406Z,2.83
2022-08-14T12:03:14.646Z,3.05
2022-08-14T12:05:43.546Z,2.75
2022-08-14T12:08:12.044Z,3.20
2022-08-14T12:10:42.728Z,3.17
2022-08-14T12:13:14.871Z,3.45
2022-08-14T12:15:47.487Z,3.38
2022-08-14T12:18:28.801Z,2.95
2022-08-14T12:20:59.494Z,3.15
2022-08-14T12:23:27.690Z,2.80
2022-08-14T12:26:31.536Z,2.67
2022-08-14T12:29:11.108Z,3.10
2022-08-14T12:31:44.596Z,2.90
2022-08-14T12:34:15.050Z,2.78
2022-08-14T12:36:47.737Z,3.00
2022-08-14T12:39:23.800Z,4.20
2022-08-14T12:41:57.038Z,2.95
2022-08-14T12:44:31.354Z,3.00
2022-08-14T12:47:06.368Z,2.50
2022-08-14T12:49:34.408Z,2.72
2022-08-14T12:52:02.965Z,2.88
2022-08-14T12:54:32.247Z,2.88
2022-08-14T12:57:19.346Z,2.70
2022-08-14T12:59:47.181Z,2.55
2022-08-14T13:02:21.569Z,2.90
2022-08-14T13:04:53.513Z,2.90
2022-08-14T13:07:21.009Z,2.90
2022-08-14T13:09:52.420Z,2.50
2022-08-14T13:12:32.451Z,2.78
2022-08-14T13:33:54.849Z,2.63
2022-08-14T13:36:23.885Z,3.10
2022-08-14T13:38:51.264Z,2.33
2022-08-14T13:41:28.045Z,2.53
2022-08-14T13:44:00.089Z,2.65
2022-08-14T13:46:27.963Z,2.85
2022-08-14T13:48:55.054Z,2.78
2022-08-14T13:51:24.337Z,2.78
2022-08-14T13:54:08.407Z,2.92
2022-08-14T13:56:38.595Z,2.40
2022-08-14T13:59:05.571Z,2.45
2022-08-14T14:01:42.785Z,2.97
2022-08-14T14:04:19.370Z,2.40
2022-08-14T14:06:48.581Z,2.97
2022-08-14T14:09:15.649Z,2.47
2022-08-14T14:11:43.594Z,2.38
2022-08-14T14:14:29.526Z,3.05
2022-08-14T14:16:58.745Z,2.47
2022-08-14T14:19:26.493Z,2.13
2022-08-14T14:21:57.389Z,2.25
2022-08-14T14:24:24.454Z,2.38
2022-08-14T14:27:13.626Z,2.63
2022-08-14T14:29:51.387Z,2.40
2022-08-14T14:32:28.128Z,2.50
2022-08-14T14:35:03.823Z,2.42
2022-08-14T14:37:30.593Z,2.72
2022-08-14T14:40:53.928Z,2.67
2022-08-14T14:42:51.787Z,2.95
2022-08-14T14:45:22.325Z,2.70
2022-08-14T14:47:51.616Z,2.60
2022-08-14T14:50:25.765Z,2.42
2022-08-14T14:52:54.051Z,2.50
2022-08-14T14:55:43.272Z,2.60
2022-08-14T14:58:29.851Z,2.50
2022-08-14T15:00:59.857Z,2.72
2022-08-14T15:03:26.434Z,2.33
2022-08-14T15:05:54.092Z,3.10
2022-08-14T15:08:26.633Z,2.63
2022-08-14T15:11:13.658Z,2.30
2022-08-14T15:13:43.305Z,2.47
2022-08-14T15:16:19.516Z,2.67
2022-08-14T15:18:48.988Z,2.83
2022-08-14T15:21:15.702Z,2.65
2022-08-14T15:23:44.022Z,2.33
2022-08-14T15:26:24.020Z,2.80
2022-08-14T15:29:06.056Z,2.92
2022-08-14T15:31:36.216Z,2.40
2022-08-14T15:34:45.698Z,2.53
2022-08-14T15:36:59.942Z,2.30
2022-08-14T15:39:29.287Z,2.63
2022-08-14T15:42:01.271Z,3.15
2022-08-14T15:44:33.713Z,3.28
2022-08-14T15:47:01.216Z,3.38
2022-08-14T15:49:34.853Z,3.42
2022-08-14T15:52:04.145Z,2.70
2022-08-14T15:54:31.889Z,2.80
2022-08-14T15:57:08.430Z,3.20
2022-08-14T15:59:54.208Z,2.95
2022-08-14T16:02:27.802Z,2.85
2022-08-14T16:04:55.063Z,3.30
2022-08-14T16:07:27.056Z,3.30
2022-08-14T16:10:18.352Z,2.88
2022-08-14T16:12:46.151Z,3.10
2022-08-14T16:15:21.137Z,2.50
2022-08-14T16:17:48.450Z,2.70
2022-08-14T16:20:41.880Z,2.50
2022-08-14T16:23:10.390Z,3.17
2022-08-14T16:25:38.041Z,3.03
2022-08-14T16:28:07.214Z,2.80
2022-08-14T16:30:34.294Z,3.10
2022-08-14T16:33:04.669Z,2.97
2022-08-14T16:35:42.638Z,3.45
2022-08-14T16:38:44.651Z,3.00
2022-08-14T16:41:45.593Z,2.83
2022-08-14T16:44:23.191Z,3.05
2022-08-14T16:47:01.894Z,3.10
2022-08-14T16:50:03.022Z,2.95
2022-08-14T16:52:25.483Z,2.83
2022-08-14T16:55:04.172Z,2.60
2022-08-14T16:57:32.413Z,2.72
2022-08-14T16:59:59.564Z,3.00
2022-08-14T17:02:36.385Z,2.92
2022-08-14T17:05:24.762Z,2.85
2022-08-14T17:08:07.357Z,3.60
2022-08-14T17:10:51.481Z,2.47
2022-08-14T17:13:59.347Z,3.20
2022-08-14T17:16:24.276Z,3.22
2022-08-14T17:19:00.769Z,2.97
2022-08-14T17:21:32.728Z,3.10
2022-08-14T17:24:57.484Z,3.15
2022-08-14T17:26:55.286Z,2.85
2022-08-14T17:29:24.342Z,3.65
2022-08-14T17:32:01.812Z,3.47
2022-08-14T17:34:44.298Z,3.10
2022-08-14T17:37:23.081Z,3.25
2022-08-14T17:40:15.035Z,3.45
2022-08-14T17:45:08.865Z,3.47
2022-08-14T17:47:35.317Z,3.30
2022-08-14T17:50:03.533Z,3.50
2022-08-14T17:52:50.131Z,3.00
2022-08-14T17:56:01.224Z,3.65
2022-08-14T17:58:20.621Z,2.92
2022-08-14T18:00:50.066Z,3.58
2022-08-14T18:03:18.477Z,3.83
2022-08-14T18:06:09.466Z,3.38
2022-08-14T18:08:49.813Z,3.35
2022-08-14T18:11:23.246Z,2.90
2022-08-14T18:13:52.645Z,3.53
2022-08-14T18:16:22.697Z,3.55
2022-08-14T18:18:50.973Z,3.47
2022-08-14T18:21:40.115Z,3.58
2022-08-14T18:24:04.892Z,3.80
2022-08-14T18:26:53.322Z,3.30
2022-08-14T18:29:31.553Z,3.95
2022-08-14T18:31:58.664Z,3.67
2022-08-14T18:34:34.700Z,3.30
2022-08-14T18:37:16.989Z,3.22
2022-08-14T18:40:02.996Z,3.70
2022-08-14T18:42:35.030Z,3.65
2022-08-14T18:45:01.812Z,3.70
2022-08-14T18:48:03.259Z,4.07
2022-08-14T18:50:27.229Z,3.70
2022-08-14T18:53:03.930Z,3.83
2022-08-14T18:55:33.420Z,3.88
2022-08-14T18:58:00.910Z,3.50
2022-08-14T19:00:33.679Z,3.53
2022-08-14T19:05:47.848Z,3.60
2022-08-14T19:08:25.314Z,3.97
2022-08-14T19:11:03.942Z,3.53
2022-08-14T19:13:48.186Z,3.47
2022-08-14T19:16:23.382Z,3.50
2022-08-14T19:18:50.178Z,3.83
2022-08-14T19:21:30.037Z,3.90
2022-08-14T19:24:29.721Z,3.55
2022-08-14T19:26:54.404Z,3.70
2022-08-14T19:29:24.165Z,3.70
2022-08-14T19:31:55.347Z,4.20
2022-08-14T19:34:52.177Z,4.07
2022-08-14T19:37:54.182Z,4.20
2022-08-14T19:40:34.479Z,4.43
2022-08-14T19:43:02.885Z,4.03
2022-08-14T19:45:30.243Z,4.38
2022-08-14T19:48:00.601Z,4.93
2022-08-14T19:50:39.022Z,4.50
2022-08-14T19:53:11.199Z,4.30
2022-08-14T19:55:45.453Z,4.50
2022-08-14T19:58:12.867Z,4.35
2022-08-14T20:00:52.111Z,4.13
2022-08-14T20:03:23.274Z,5.32
2022-08-14T20:06:05.485Z,4.97
2022-08-14T20:11:01.151Z,4.30
2022-08-14T20:11:58.523Z,4.40
2022-08-14T20:14:28.092Z,4.65
2022-08-14T20:17:06.264Z,4.65
2022-08-14T20:19:37.352Z,4.20
2022-08-14T20:22:37.255Z,4.22
2022-08-14T20:24:54.153Z,4.10
2022-08-14T20:27:38.762Z,5.13
2022-08-14T20:30:29.610Z,4.07
2022-08-14T20:32:56.750Z,4.53
2022-08-14T20:35:24.070Z,4.85
2022-08-14T20:38:31.837Z,4.63
2022-08-14T20:40:52.155Z,4.65
2022-08-14T20:43:41.345Z,4.70
2022-08-14T20:46:12.730Z,4.68
2022-08-14T20:48:50.962Z,5.20
2022-08-14T20:51:24.331Z,5.68
2022-08-14T20:54:02.846Z,4.95
2022-08-14T20:56:40.712Z,4.85
2022-08-14T20:59:24.342Z,4.53
2022-08-14T21:04:22.102Z,5.05
2022-08-14T21:07:25.926Z,5.28
2022-08-14T21:10:05.403Z,5.03
2022-08-14T21:12:33.799Z,4.90
2022-08-14T21:15:01.723Z,4.78
2022-08-14T21:17:29.614Z,5.05
2022-08-14T21:19:56.355Z,4.80
2022-08-14T21:22:22.959Z,5.07
2022-08-14T21:24:49.405Z,4.68
2022-08-14T21:27:28.520Z,5.32
2022-08-14T21:30:08.711Z,4.82
2022-08-14T21:32:47.013Z,4.90
2022-08-14T21:35:17.434Z,4.47
2022-08-14T21:37:45.988Z,5.40
2022-08-14T21:40:40.060Z,5.20
2022-08-14T21:43:01.194Z,5.18
2022-08-14T21:45:27.724Z,4.97
2022-08-14T21:47:56.423Z,4.97
2022-08-14T21:51:00.459Z,4.55
2022-08-14T21:53:11.142Z,4.93
2022-08-14T21:55:37.690Z,4.95
2022-08-14T21:58:54.365Z,4.90
2022-08-14T22:00:51.281Z,5.80
2022-08-14T22:03:24.084Z,4.72
2022-08-14T22:05:51.806Z,5.28
2022-08-14T22:08:21.100Z,5.10
2022-08-14T22:10:51.483Z,4.82
2022-08-14T22:13:19.869Z,4.63
2022-08-14T22:15:49.520Z,5.13
2022-08-14T22:18:20.541Z,5.38
2022-08-14T22:20:47.538Z,5.20
2022-08-14T22:23:14.112Z,4.95
2022-08-14T22:25:41.986Z,5.35
2022-08-14T22:28:13.026Z,5.05
2022-08-14T22:30:41.681Z,6.07
2022-08-14T22:33:10.131Z,5.00
2022-08-14T22:35:42.786Z,5.90
2022-08-14T22:38:37.307Z,5.97
2022-08-14T22:41:26.178Z,5.28
2022-08-14T22:43:44.270Z,5.13
2022-08-14T22:46:15.157Z,5.30
2022-08-14T22:48:47.214Z,5.50
2022-08-14T22:51:16.049Z,4.95
2022-08-14T22:53:44.872Z,4.63
2022-08-14T22:56:20.586Z,5.60
2022-08-14T22:58:48.361Z,5.55
2022-08-14T23:01:17.878Z,5.93
2022-08-14T23:03:49.444Z,5.75
2022-08-14T23:07:04.423Z,5.35
2022-08-14T23:09:35.606Z,5.88
2022-08-14T23:11:51.530Z,5.85
2022-08-14T23:14:24.353Z,5.43
2022-08-14T23:16:57.519Z,5.15
2022-08-14T23:19:24.646Z,5.85
2022-08-14T23:22:00.937Z,5.28
2022-08-14T23:24:27.509Z,5.45
2022-08-14T23:26:55.614Z,5.72
2022-08-14T23:29:22.039Z,5.05
2022-08-14T23:31:48.937Z,5.40
2022-08-14T23:34:20.295Z,5.38
2022-08-14T23:36:54.288Z,5.50
2022-08-14T23:39:24.328Z,6.07
2022-08-14T23:41:53.615Z,5.93
2022-08-14T23:44:24.342Z,6.22
2022-08-14T23:46:52.661Z,6.75
2022-08-14T23:49:28.726Z,5.78
2022-08-14T23:52:55.657Z,6.68
2022-08-14T23:55:01.779Z,7.00
2022-08-14T23:57:28.661Z,6.30
2022-08-14T23:59:57.339Z,6.93
